createdAt,value
2023-05-21T00:01:31.046Z,100038.03
2023-05-21T00:04:34.273Z,100045.38
2023-05-21T00:07:38.670Z,100032.72
2023-05-21T00:10:41.367Z,100038.91
2023-05-21T00:13:44.153Z,100017.19
2023-05-21T00:16:47.189Z,100034.56
2023-05-21T00:19:50.435Z,100027.47
2023-05-21T00:22:55.714Z,100032.91
2023-05-21T00:25:58.483Z,100031.16
2023-05-21T00:29:01.294Z,100029.41
2023-05-21T00:32:04.462Z,100021.22
2023-05-21T00:35:09.007Z,100025.69
2023-05-21T00:38:14.346Z,100018.59
2023-05-21T00:41:17.441Z,100022.44
2023-05-21T00:44:20.658Z,100023.41
2023-05-21T00:47:23.916Z,100015.22
2023-05-21T00:50:27.831Z,100014.34
2023-05-21T00:53:34.964Z,100007.25
2023-05-21T00:56:38.302Z,100009.00
2023-05-21T00:59:41.151Z,100009.09
2023-05-21T01:02:45.339Z,100002.75
2023-05-21T01:05:48.857Z,100006.25
2023-05-21T01:08:53.383Z,99997.28
2023-05-21T01:11:57.481Z,99999.28
2023-05-21T01:15:02.153Z,99998.31
2023-05-21T01:18:06.008Z,99994.03
2023-05-21T01:21:09.788Z,99993.16
2023-05-21T01:24:13.935Z,99986.94
2023-05-21T01:27:16.829Z,99988.78
2023-05-21T01:30:21.755Z,99989.91
2023-05-21T01:33:28.950Z,99987.28
2023-05-21T01:36:40.867Z,99983.66
2023-05-21T01:39:48.623Z,99982.00
2023-05-21T01:42:51.667Z,99980.25
2023-05-21T01:45:56.811Z,99980.72
2023-05-21T01:48:59.903Z,99977.66
2023-05-21T01:52:04.397Z,99977.00
2023-05-21T01:55:09.179Z,99952.31
2023-05-21T01:58:11.951Z,99979.84
2023-05-21T02:01:14.938Z,99969.00
2023-05-21T02:04:17.685Z,99972.09
2023-05-21T02:07:20.442Z,99956.56
2023-05-21T02:10:27.995Z,99963.22
2023-05-21T02:13:34.488Z,99969.81
2023-05-21T02:16:38.438Z,99963.66
2023-05-21T02:19:41.857Z,99965.63
2023-05-21T02:22:46.270Z,99963.13
2023-05-21T02:25:50.421Z,99973.38
2023-05-21T02:28:54.089Z,99962.34
2023-05-21T02:31:56.858Z,99971.53
2023-05-21T02:34:59.818Z,99971.53
2023-05-21T02:38:03.157Z,99963.34
2023-05-21T02:41:07.586Z,99965.28
2023-05-21T02:44:10.317Z,99957.09
2023-05-21T02:47:13.054Z,99958.13
2023-05-21T02:50:16.048Z,99963.69
2023-05-21T02:53:18.790Z,99964.66
2023-05-21T02:56:23.324Z,99959.28
2023-05-21T02:59:26.095Z,99963.97
2023-05-21T03:02:29.343Z,99963.09
2023-05-21T03:05:32.188Z,99962.34
2023-05-21T03:08:35.023Z,99962.34
2023-05-21T03:11:39.110Z,99963.44
2023-05-21T03:14:44.204Z,99963.63
2023-05-21T03:17:48.316Z,99957.53
2023-05-21T03:20:51.473Z,99958.63
2023-05-21T03:23:58.621Z,99960.66
2023-05-21T03:27:02.863Z,99957.19
2023-05-21T03:30:06.955Z,99952.03
2023-05-21T03:33:11.182Z,99957.03
2023-05-21T03:36:14.169Z,99956.16
2023-05-21T03:39:17.138Z,99960.06
2023-05-21T03:42:21.244Z,99962.22
2023-05-21T03:45:23.957Z,99958.75
2023-05-21T03:48:26.774Z,99964.41
2023-05-21T03:51:30.813Z,99960.81
2023-05-21T03:54:33.547Z,99964.41
2023-05-21T03:57:37.769Z,99955.69
2023-05-21T04:00:40.631Z,99968.88
2023-05-21T04:03:43.697Z,99957.00
2023-05-21T04:06:46.525Z,99966.69
2023-05-21T04:09:49.376Z,99958.75
2023-05-21T04:12:53.583Z,99961.81
2023-05-21T04:15:56.440Z,99954.22
2023-05-21T04:18:59.623Z,99963.41
2023-05-21T04:22:03.168Z,99965.63
2023-05-21T04:25:06.363Z,99971.41
2023-05-21T04:28:11.060Z,99958.84
2023-05-21T04:31:14.044Z,99969.13
2023-05-21T04:34:18.888Z,99956.25
2023-05-21T04:37:24.639Z,99967.16
2023-05-21T04:40:27.366Z,99969.25
2023-05-21T04:43:32.095Z,99972.19
2023-05-21T04:46:35.847Z,99974.38
2023-05-21T04:49:38.917Z,99965.84
2023-05-21T04:52:41.761Z,99966.38
2023-05-21T04:55:44.515Z,99954.91
2023-05-21T04:58:49.332Z,99957.09
2023-05-21T05:01:52.692Z,99969.09
2023-05-21T05:04:55.617Z,99968.66
2023-05-21T05:07:58.405Z,99961.72
2023-05-21T05:11:01.250Z,99968.84
2023-05-21T05:14:05.331Z,99962.03
2023-05-21T05:17:09.920Z,99971.00
2023-05-21T05:20:12.993Z,99963.31
2023-05-21T05:23:16.092Z,99955.66
2023-05-21T05:26:18.942Z,99952.69
2023-05-21T05:29:23.065Z,99956.69
2023-05-21T05:32:25.841Z,99958.09
2023-05-21T05:35:28.578Z,99951.41
2023-05-21T05:38:31.374Z,99943.75
2023-05-21T05:41:34.100Z,99955.06
2023-05-21T05:44:38.246Z,99942.03
2023-05-21T05:47:41.008Z,99957.41
2023-05-21T05:50:43.938Z,99949.72
2023-05-21T05:53:46.671Z,99948.25
2023-05-21T05:56:49.426Z,99951.38
2023-05-21T05:59:53.506Z,99943.44
2023-05-21T06:02:56.361Z,99938.88
2023-05-21T06:05:59.220Z,99939.63
2023-05-21T06:09:02.042Z,99935.94
2023-05-21T06:12:05.740Z,99940.16
2023-05-21T06:15:11.139Z,99932.28
2023-05-21T06:18:13.914Z,99930.34
2023-05-21T06:21:16.646Z,99928.91
2023-05-21T06:24:19.537Z,99933.19
2023-05-21T06:27:22.401Z,99925.28
2023-05-21T06:30:26.560Z,99914.78
2023-05-21T06:33:29.487Z,99903.19
2023-05-21T06:36:32.457Z,99902.69
2023-05-21T06:39:35.339Z,99900.50
2023-05-21T06:42:38.142Z,99898.91
2023-05-21T06:45:42.432Z,99892.53
2023-05-21T06:48:45.922Z,99878.88
2023-05-21T06:51:48.802Z,99892.66
2023-05-21T06:54:51.581Z,99890.31
2023-05-21T06:57:54.431Z,99888.81
2023-05-21T07:00:58.529Z,99892.91
2023-05-21T07:04:02.368Z,99885.75
2023-05-21T07:07:05.744Z,99883.81
2023-05-21T07:10:09.753Z,99879.72
2023-05-21T07:13:12.690Z,99875.31
2023-05-21T07:16:17.878Z,99875.16
2023-05-21T07:19:21.233Z,99883.78
2023-05-21T07:22:25.946Z,99877.84
2023-05-21T07:25:30.251Z,99872.31
2023-05-21T07:28:33.253Z,99874.06
2023-05-21T07:31:37.837Z,99871.59
2023-05-21T07:34:41.459Z,99872.72
2023-05-21T07:37:44.339Z,99865.44
2023-05-21T07:40:47.173Z,99870.91
2023-05-21T07:43:50.406Z,99868.00
2023-05-21T07:46:54.563Z,99867.03
2023-05-21T07:49:58.780Z,99864.28
2023-05-21T07:53:02.484Z,99870.09
2023-05-21T07:56:05.609Z,99864.66
2023-05-21T07:59:08.417Z,99864.84
2023-05-21T08:02:12.695Z,99867.81
2023-05-21T08:05:16.476Z,99853.47
2023-05-21T08:08:20.139Z,99861.50
2023-05-21T08:11:23.423Z,99869.41
2023-05-21T08:14:26.298Z,99865.53
2023-05-21T08:17:30.620Z,99866.88
2023-05-21T08:20:34.362Z,99863.72
2023-05-21T08:23:37.131Z,99860.09
2023-05-21T08:26:39.868Z,99854.56
2023-05-21T08:29:42.712Z,99850.03
2023-05-21T08:32:47.046Z,99858.28
2023-05-21T08:35:49.997Z,99856.44
2023-05-21T08:38:52.906Z,99847.72
2023-05-21T08:42:03.907Z,99843.06
2023-05-21T08:45:07.764Z,99857.13
2023-05-21T08:48:13.273Z,99852.03
2023-05-21T08:51:17.043Z,99846.56
2023-05-21T08:54:19.798Z,99847.59
2023-05-21T08:57:26.293Z,99852.09
2023-05-21T09:00:29.062Z,99851.06
2023-05-21T09:03:33.337Z,99850.88
2023-05-21T09:06:36.497Z,99844.31
2023-05-21T09:09:47.244Z,99849.44
2023-05-21T09:12:50.181Z,99837.84
2023-05-21T09:15:52.919Z,99838.72
2023-05-21T09:18:57.099Z,99839.44
2023-05-21T09:22:03.840Z,99846.19
2023-05-21T09:25:08.985Z,99848.25
2023-05-21T09:28:16.607Z,99851.41
2023-05-21T09:31:19.473Z,99843.44
2023-05-21T09:34:26.371Z,99851.75
2023-05-21T09:37:29.873Z,99842.91
2023-05-21T09:40:32.666Z,99842.56
2023-05-21T09:43:35.509Z,99857.81
2023-05-21T09:46:42.517Z,99851.84
2023-05-21T09:49:46.888Z,99849.63
2023-05-21T09:52:52.921Z,99846.50
2023-05-21T09:55:59.031Z,99840.84
2023-05-21T09:59:04.696Z,99821.81
2023-05-21T10:02:19.597Z,99831.66
2023-05-21T10:05:27.485Z,99828.41
2023-05-21T10:08:35.049Z,99823.22
2023-05-21T10:11:38.298Z,99813.13
2023-05-21T10:14:43.382Z,99818.16
2023-05-21T10:17:47.419Z,99809.97
2023-05-21T10:20:52.327Z,99807.25
2023-05-21T10:23:57.464Z,99815.59
2023-05-21T10:27:02.276Z,99800.69
2023-05-21T10:30:06.938Z,99797.66
2023-05-21T10:33:10.238Z,99797.16
2023-05-21T10:36:17.587Z,99784.28
2023-05-21T10:39:24.054Z,99795.22
2023-05-21T10:42:48.914Z,99797.59
2023-05-21T10:46:10.769Z,99787.34
2023-05-21T10:49:39.736Z,99791.59
2023-05-21T10:52:58.108Z,99787.88
2023-05-21T10:56:12.904Z,99779.31
2023-05-21T10:59:26.827Z,99791.28
2023-05-21T11:02:31.082Z,99791.81
2023-05-21T11:05:41.549Z,99784.91
2023-05-21T11:08:48.830Z,99782.31
2023-05-21T11:11:52.818Z,99774.34
2023-05-21T11:14:58.414Z,99782.44
2023-05-21T11:18:01.316Z,99771.31
2023-05-21T11:21:07.038Z,99770.09
2023-05-21T11:24:20.284Z,99770.22
2023-05-21T11:27:34.187Z,99763.88
2023-05-21T11:30:38.960Z,99764.94
2023-05-21T11:33:43.730Z,99761.28
2023-05-21T11:36:48.428Z,99758.53
2023-05-21T11:39:52.756Z,99764.78
2023-05-21T11:42:56.904Z,99767.19
2023-05-21T11:46:00.759Z,99763.25
2023-05-21T11:49:04.864Z,99763.19
2023-05-21T11:52:09.558Z,99761.25
2023-05-21T11:55:15.928Z,99741.88
2023-05-21T11:58:19.980Z,99759.66
2023-05-21T12:01:24.058Z,99773.47
2023-05-21T12:04:30.844Z,99772.31
2023-05-21T12:07:33.599Z,99753.31
2023-05-21T12:10:39.617Z,99764.63
2023-05-21T12:13:42.586Z,99765.38
2023-05-21T12:16:45.614Z,99758.00
2023-05-21T12:19:49.381Z,99754.53
2023-05-21T12:22:52.166Z,99752.97
2023-05-21T12:25:56.422Z,99759.88
2023-05-21T12:28:59.691Z,99756.91
2023-05-21T12:32:03.199Z,99760.66
2023-05-21T12:35:06.894Z,99767.97
2023-05-21T12:38:10.047Z,99761.13
2023-05-21T12:41:14.339Z,99755.47
2023-05-21T12:44:17.402Z,99753.34
2023-05-21T12:47:20.706Z,99754.91
2023-05-21T12:50:23.612Z,99750.16
2023-05-21T12:53:27.046Z,99746.66
2023-05-21T12:56:45.568Z,99753.44
2023-05-21T12:59:50.785Z,99745.94
2023-05-21T13:02:53.630Z,99757.28
2023-05-21T13:05:59.765Z,99756.31
2023-05-21T13:09:02.542Z,99747.28
2023-05-21T13:12:07.801Z,99748.25
2023-05-21T13:15:11.668Z,99759.31
2023-05-21T13:18:16.057Z,99760.16
2023-05-21T13:21:19.030Z,99754.22
2023-05-21T13:24:22.271Z,99763.44
2023-05-21T13:27:26.523Z,99755.41
2023-05-21T13:30:29.869Z,99759.38
2023-05-21T13:33:32.879Z,99765.47
2023-05-21T13:36:36.437Z,99761.16
2023-05-21T13:39:39.538Z,99760.75
2023-05-21T13:42:44.385Z,99760.44
2023-05-21T13:45:50.019Z,99763.66
2023-05-21T13:48:52.853Z,99754.72
2023-05-21T13:51:55.776Z,99748.38
2023-05-21T13:54:58.817Z,99744.53
2023-05-21T13:58:03.012Z,99748.91
2023-05-21T14:01:07.295Z,99748.09
2023-05-21T14:04:10.400Z,99738.06
2023-05-21T14:07:13.304Z,99753.03
2023-05-21T14:10:16.221Z,99743.53
2023-05-21T14:13:21.076Z,99740.47
2023-05-21T14:16:25.236Z,99741.91
2023-05-21T14:19:30.517Z,99744.44
2023-05-21T14:22:33.350Z,99737.34
2023-05-21T14:25:36.487Z,99743.78
2023-05-21T14:28:40.798Z,99738.16
2023-05-21T14:31:44.166Z,99732.19
2023-05-21T14:34:47.124Z,99734.84
2023-05-21T14:37:50.530Z,99736.81
2023-05-21T14:40:53.309Z,99736.16
2023-05-21T14:43:58.125Z,99739.50
2023-05-21T14:47:00.897Z,99738.16
2023-05-21T14:50:04.218Z,99734.97
2023-05-21T14:53:07.096Z,99733.78
2023-05-21T14:56:10.110Z,99731.00
2023-05-21T14:59:14.378Z,99736.16
2023-05-21T15:02:17.870Z,99735.50
2023-05-21T15:05:21.151Z,99731.84
2023-05-21T15:08:23.902Z,99738.81
2023-05-21T15:11:26.684Z,99731.00
2023-05-21T15:14:30.918Z,99726.66
2023-05-21T15:17:34.141Z,99733.50
2023-05-21T15:20:36.964Z,99731.44
2023-05-21T15:23:39.756Z,99719.44
2023-05-21T15:26:42.612Z,99722.75
2023-05-21T15:29:46.816Z,99715.44
2023-05-21T15:32:49.733Z,99728.13
2023-05-21T15:35:52.676Z,99710.75
2023-05-21T15:38:55.661Z,99724.91
2023-05-21T15:41:58.409Z,99718.91
2023-05-21T15:45:02.640Z,99710.31
2023-05-21T15:48:05.914Z,99718.50
2023-05-21T15:51:08.859Z,99720.28
2023-05-21T15:54:11.641Z,99713.00
2023-05-21T15:57:14.460Z,99709.53
2023-05-21T16:00:18.798Z,99718.19
2023-05-21T16:03:22.266Z,99719.97
2023-05-21T16:06:25.837Z,99707.19
2023-05-21T16:09:28.793Z,99707.06
2023-05-21T16:12:31.794Z,99713.38
2023-05-21T16:15:36.264Z,99713.28
2023-05-21T16:18:39.200Z,99714.09
2023-05-21T16:21:42.643Z,99711.16
2023-05-21T16:24:45.404Z,99698.81
2023-05-21T16:27:48.658Z,99711.16
2023-05-21T16:30:52.949Z,99714.31
2023-05-21T16:33:55.889Z,99712.59
2023-05-21T16:36:59.131Z,99714.97
2023-05-21T16:40:02.448Z,99716.09
2023-05-21T16:43:05.375Z,99698.06
2023-05-21T16:46:09.613Z,99716.81
2023-05-21T16:49:12.326Z,99718.72
2023-05-21T16:52:15.074Z,99721.38
2023-05-21T16:55:18.252Z,99721.59
2023-05-21T16:58:21.184Z,99722.53
2023-05-21T17:01:25.659Z,99731.78
2023-05-21T17:04:28.511Z,99728.13
2023-05-21T17:07:31.720Z,99730.03
2023-05-21T17:10:34.857Z,99729.88
2023-05-21T17:13:37.633Z,99744.59
2023-05-21T17:16:42.932Z,99734.19
2023-05-21T17:19:45.746Z,99739.91
2023-05-21T17:22:48.860Z,99733.50
2023-05-21T17:25:51.988Z,99728.19
2023-05-21T17:28:54.866Z,99732.59
2023-05-21T17:31:59.165Z,99717.06
2023-05-21T17:35:02.468Z,99733.53
2023-05-21T17:38:05.287Z,99735.06
2023-05-21T17:41:08.213Z,99738.50
2023-05-21T17:44:11.416Z,99740.25
2023-05-21T17:47:15.603Z,99753.59
2023-05-21T17:50:18.419Z,99758.44
2023-05-21T17:53:21.222Z,99753.59
2023-05-21T17:56:24.105Z,99762.41
2023-05-21T17:59:26.880Z,99759.16
2023-05-21T18:02:31.034Z,99755.13
2023-05-21T18:05:33.859Z,99757.56
2023-05-21T18:08:36.684Z,99762.53
2023-05-21T18:11:40.302Z,99762.50
2023-05-21T18:14:43.118Z,99765.97
2023-05-21T18:17:48.414Z,99769.41
2023-05-21T18:20:51.316Z,99773.69
2023-05-21T18:23:54.146Z,99776.94
2023-05-21T18:26:56.976Z,99786.22
2023-05-21T18:30:03.320Z,99788.44
2023-05-21T18:33:08.328Z,99791.22
2023-05-21T18:36:11.598Z,99784.75
2023-05-21T18:39:14.332Z,99791.19
2023-05-21T18:42:17.323Z,99793.31
2023-05-21T18:45:20.088Z,99791.94
2023-05-21T18:48:24.228Z,99794.41
2023-05-21T18:51:27.067Z,99793.31
2023-05-21T18:54:29.855Z,99799.19
2023-05-21T18:57:34.361Z,99802.06
2023-05-21T19:00:39.426Z,99810.69
2023-05-21T19:03:43.784Z,99808.56
2023-05-21T19:06:47.115Z,99793.13
2023-05-21T19:09:49.977Z,99818.75
2023-05-21T19:12:52.768Z,99821.31
2023-05-21T19:15:57.499Z,99818.09
2023-05-21T19:19:02.023Z,99819.47
2023-05-21T19:22:04.956Z,99821.25
2023-05-21T19:25:08.388Z,99823.56
2023-05-21T19:28:11.359Z,99826.47
2023-05-21T19:31:14.185Z,99823.13
2023-05-21T19:34:18.453Z,99829.63
2023-05-21T19:37:21.438Z,99832.00
2023-05-21T19:40:24.211Z,99830.84
2023-05-21T19:43:28.009Z,99831.75
2023-05-21T19:46:32.039Z,99844.34
2023-05-21T19:49:36.124Z,99855.25
2023-05-21T19:52:39.100Z,99845.66
2023-05-21T19:55:41.937Z,99856.41
2023-05-21T19:58:47.217Z,99862.34
2023-05-21T20:01:50.253Z,99869.44
2023-05-21T20:04:57.475Z,99859.88
2023-05-21T20:08:00.203Z,99871.19
2023-05-21T20:11:03.459Z,99864.34
2023-05-21T20:14:06.794Z,99872.00
2023-05-21T20:17:10.375Z,99868.09
2023-05-21T20:20:14.783Z,99871.38
2023-05-21T20:23:17.848Z,99863.59
2023-05-21T20:26:21.823Z,99871.53
2023-05-21T20:29:24.648Z,99869.50
2023-05-21T20:32:27.502Z,99866.44
2023-05-21T20:35:31.945Z,99867.88
2023-05-21T20:38:36.910Z,99858.88
2023-05-21T20:41:39.656Z,99866.13
2023-05-21T20:44:45.086Z,99870.13
2023-05-21T20:47:50.080Z,99860.84
2023-05-21T20:50:54.371Z,99869.09
2023-05-21T20:53:57.226Z,99865.16
2023-05-21T20:57:00.145Z,99864.81
2023-05-21T21:00:05.448Z,99870.59
2023-05-21T21:03:10.368Z,99868.13
2023-05-21T21:06:14.694Z,99871.69
2023-05-21T21:09:17.665Z,99881.16
2023-05-21T21:12:25.295Z,99883.38
2023-05-21T21:15:29.469Z,99884.59
2023-05-21T21:18:32.197Z,99883.28
2023-05-21T21:21:36.642Z,99888.94
2023-05-21T21:24:39.407Z,99898.84
2023-05-21T21:27:42.473Z,99891.25
2023-05-21T21:30:45.812Z,99895.84
2023-05-21T21:33:48.631Z,99890.38
2023-05-21T21:36:52.888Z,99893.41
2023-05-21T21:39:55.815Z,99892.91
2023-05-21T21:42:59.436Z,99889.81
2023-05-21T21:46:02.527Z,99889.19
2023-05-21T21:49:05.502Z,99900.16
2023-05-21T21:52:10.869Z,99895.19
2023-05-21T21:55:13.709Z,99899.34
2023-05-21T21:58:16.522Z,99900.00
2023-05-21T22:01:19.769Z,99908.47
2023-05-21T22:04:22.662Z,99894.81
2023-05-21T22:07:28.901Z,99903.75
2023-05-21T22:10:33.493Z,99905.78
2023-05-21T22:13:36.680Z,99905.03
2023-05-21T22:16:41.579Z,99902.94
2023-05-21T22:19:44.505Z,99902.41
2023-05-21T22:22:48.783Z,99903.56
2023-05-21T22:25:51.714Z,99914.00
2023-05-21T22:28:54.503Z,99906.53
2023-05-21T22:31:57.412Z,99903.28
2023-05-21T22:35:00.200Z,99906.53
2023-05-21T22:38:04.320Z,99910.13
2023-05-21T22:41:08.500Z,99906.56
2023-05-21T22:44:11.284Z,99903.94
2023-05-21T22:47:14.092Z,99900.19
2023-05-21T22:50:18.064Z,99920.00
2023-05-21T22:53:23.343Z,99905.78
2023-05-21T22:56:26.335Z,99897.56
2023-05-21T22:59:29.620Z,99889.84
2023-05-21T23:02:32.491Z,99909.50
2023-05-21T23:05:35.262Z,99901.28
2023-05-21T23:08:39.571Z,99911.00
2023-05-21T23:11:42.351Z,99912.72
2023-05-21T23:14:45.072Z,99912.09
2023-05-21T23:17:47.824Z,99919.44
2023-05-21T23:20:50.953Z,99923.28
2023-05-21T23:23:55.131Z,99914.97
2023-05-21T23:27:02.778Z,99918.19
2023-05-21T23:30:06.279Z,99915.69
2023-05-21T23:33:09.879Z,99920.66
2023-05-21T23:36:12.717Z,99919.91
2023-05-21T23:39:16.859Z,99933.06
2023-05-21T23:42:19.866Z,99928.03
2023-05-21T23:45:22.702Z,99922.81
2023-05-21T23:48:25.692Z,99935.72
2023-05-21T23:51:28.565Z,99930.47
2023-05-21T23:54:32.724Z,99934.25
2023-05-21T23:57:35.472Z,99922.88
